Time;durP1;ratioP1;P1;durP2;ratioP2;P2;SDS_P1;SDS_P2;PMS_P1;PMS_P2;Temp;Humidity;BMP_temperature;BMP_pressure;BME280_temperature;BME280_humidity;BME280_pressure;Samples;Min_cycle;Max_cycle;Signal;HPM_P1;HPM_P2
2023/10/10 00:00:46;;;;;;;2.85;1.73;;;;;;;0.89;75.48;95667.63;6295510;28;20048;-67
2023/10/10 00:03:37;;;;;;;2.97;1.10;;;;;;;0.94;75.45;95680.38;6294867;28;20056;-66
2023/10/10 00:06:40;;;;;;;2.72;1.40;;;;;;;0.88;75.42;95679.75;6295644;28;20036;-66
2023/10/10 00:09:45;;;;;;;2.45;1.73;;;;;;;0.81;75.60;95683.50;6260675;28;20056;-66
2023/10/10 00:12:48;;;;;;;2.08;1.20;;;;;;;0.79;76.06;95676.72;6295215;28;20059;-66
2023/10/10 00:15:51;;;;;;;3.05;1.17;;;;;;;0.95;75.60;95682.88;6294375;28;20049;-66
2023/10/10 00:18:56;;;;;;;2.20;1.10;;;;;;;0.93;76.25;95694.22;6276802;28;20537;-66
2023/10/10 00:22:05;;;;;;;4.05;1.33;;;;;;;1.07;75.61;95695.25;6295445;28;20052;-66
2023/10/10 00:25:12;;;;;;;1.20;1.10;;;;;;;0.85;75.86;95677.31;6295211;28;20040;-67
2023/10/10 00:28:20;;;;;;;4.53;1.23;;;;;;;0.96;75.86;95678.53;6294799;28;20128;-66
2023/10/10 00:31:28;;;;;;;1.42;1.33;;;;;;;0.93;76.67;95696.81;6276847;28;20154;-66
2023/10/10 00:34:34;;;;;;;1.15;1.02;;;;;;;0.96;76.33;95694.09;6294183;28;20052;-66
2023/10/10 00:37:35;;;;;;;2.03;1.83;;;;;;;0.88;76.87;95702.22;6293884;28;20053;-66
2023/10/10 00:40:40;;;;;;;1.30;1.20;;;;;;;0.86;76.86;95694.50;6294030;28;20048;-66
2023/10/10 00:43:45;;;;;;;1.23;1.10;;;;;;;0.93;77.04;95696.81;6293824;28;20258;-66
2023/10/10 00:46:54;;;;;;;2.72;1.63;;;;;;;0.87;77.15;95703.94;6294562;28;20043;-67
2023/10/10 00:49:59;;;;;;;1.48;1.30;;;;;;;0.76;77.35;95698.41;6294012;28;20064;-67
2023/10/10 00:53:01;;;;;;;;;;;;;;;0.88;77.03;95690.09;6294181;28;20087;-65
2023/10/10 00:56:07;;;;;;;2.65;1.55;;;;;;;0.59;78.00;95681.03;6275948;28;20005;-66
2023/10/10 00:59:08;;;;;;;2.97;1.20;;;;;;;0.59;78.04;95685.38;6294317;28;20400;-67
2023/10/10 01:02:14;;;;;;;2.72;1.48;;;;;;;0.56;78.53;95681.19;6293582;28;20135;-66
2023/10/10 01:05:23;;;;;;;2.30;1.58;;;;;;;0.60;78.22;95692.25;6276059;28;20048;-67
2023/10/10 01:08:30;;;;;;;3.58;1.65;;;;;;;0.65;78.36;95695.47;6293624;28;20427;-66
2023/10/10 01:11:32;;;;;;;3.33;1.60;;;;;;;0.54;77.60;95697.69;6293297;28;20126;-67
2023/10/10 01:14:33;;;;;;;1.83;0.98;;;;;;;0.34;78.43;95691.66;6293652;28;20063;-67
2023/10/10 01:17:38;;;;;;;0.93;0.93;;;;;;;0.38;78.87;95688.03;6292976;28;20056;-66
2023/10/10 01:20:45;;;;;;;1.67;1.05;;;;;;;0.35;78.92;95703.69;6275866;28;20563;-66
2023/10/10 01:23:47;;;;;;;1.75;1.50;;;;;;;0.26;79.49;95698.91;6293485;28;20049;-66
2023/10/10 01:26:51;;;;;;;1.58;0.95;;;;;;;0.12;79.66;95712.44;6293477;28;20518;-67
2023/10/10 01:30:17;;;;;;;1.75;1.00;;;;;;;0.13;79.47;95710.69;6258652;28;20075;-66
2023/10/10 01:33:16;;;;;;;2.58;1.33;;;;;;;0.15;79.50;95712.28;6293876;28;20044;-67
2023/10/10 01:36:22;;;;;;;2.20;1.52;;;;;;;0.08;79.72;95708.28;6293313;28;20048;-66
2023/10/10 01:39:36;;;;;;;3.33;1.73;;;;;;;0.04;79.21;95711.06;6292331;28;20056;-68
2023/10/10 01:42:45;;;;;;;2.83;1.38;;;;;;;-0.26;80.16;95711.41;6293627;28;20456;-66
2023/10/10 01:46:08;;;;;;;1.88;1.15;;;;;;;-0.14;80.14;95715.25;6274921;28;20163;-67
2023/10/10 01:49:30;;;;;;;1.48;1.38;;;;;;;-0.35;80.68;95719.56;6293473;28;20048;-66
2023/10/10 01:52:46;;;;;;;1.73;1.33;;;;;;;-0.31;80.49;95724.56;6293361;28;20052;-67
2023/10/10 01:55:50;;;;;;;2.45;1.60;;;;;;;-0.04;80.15;95722.56;6293775;28;20052;-67
2023/10/10 01:58:54;;;;;;;2.63;1.75;;;;;;;-0.20;79.75;95729.25;6293148;28;20131;-67
2023/10/10 02:01:57;;;;;;;3.30;1.73;;;;;;;-0.14;80.15;95728.16;6295930;28;20071;-67
2023/10/10 02:04:59;;;;;;;1.83;1.30;;;;;;;-0.01;80.26;95739.69;6297610;28;20052;-66
2023/10/10 02:08:09;;;;;;;1.38;1.25;;;;;;;-0.05;80.21;95746.75;6297868;28;20052;-66
2023/10/10 02:11:13;;;;;;;2.83;1.77;;;;;;;-0.17;80.46;95742.09;6298293;28;20047;-67
2023/10/10 02:14:19;;;;;;;3.35;1.60;;;;;;;-0.17;80.41;95741.22;6298055;28;20044;-66
2023/10/10 02:17:26;;;;;;;3.65;1.70;;;;;;;-0.02;80.07;95746.63;6297962;28;20049;-67
2023/10/10 02:23:34;;;;;;;1.95;1.40;;;;;;;-0.22;80.03;95751.78;6298058;28;20642;-67
2023/10/10 02:26:39;;;;;;;2.58;1.55;;;;;;;-0.32;80.93;95747.88;6297843;28;20503;-67
2023/10/10 02:29:48;;;;;;;1.90;1.42;;;;;;;-0.31;79.73;95746.94;6279025;28;20040;-68
2023/10/10 02:32:49;;;;;;;2.53;1.13;;;;;;;-0.42;80.96;95757.75;6297043;28;20865;-69
2023/10/10 02:35:55;;;;;;;2.97;1.90;;;;;;;-0.41;80.56;95753.41;6297184;28;20418;-68
2023/10/10 02:42:34;;;;;;;5.88;1.88;;;;;;;-0.44;81.24;95749.19;6252293;28;20127;-69
2023/10/10 02:45:36;;;;;;;1.30;1.20;;;;;;;-0.34;81.07;95754.81;6297420;28;20187;-69
2023/10/10 02:48:42;;;;;;;1.55;1.30;;;;;;;-0.26;81.27;95763.13;6296088;28;20052;-70
2023/10/10 02:51:48;;;;;;;2.03;1.60;;;;;;;-0.25;81.18;95765.66;6296607;28;20055;-70
2023/10/10 02:54:55;;;;;;;1.58;1.48;;;;;;;-0.24;81.45;95771.66;6279192;28;20036;-66
2023/10/10 02:57:59;;;;;;;2.25;1.60;;;;;;;0.02;81.33;95762.84;6278590;28;20049;-68
2023/10/10 03:01:18;;;;;;;2.28;1.95;;;;;;;0.04;81.00;95766.22;6296594;28;20044;-67
2023/10/10 03:04:22;;;;;;;3.95;1.73;;;;;;;0.21;81.08;95773.28;6296730;28;20460;-67
2023/10/10 03:07:30;;;;;;;1.67;1.58;;;;;;;0.34;80.70;95777.06;6295619;28;20040;-66
2023/10/10 03:13:45;;;;;;;;;;;;;;;0.53;80.03;95792.63;6296235;28;20125;-65
2023/10/10 03:16:59;;;;;;;2.38;1.75;;;;;;;0.60;79.09;95811.34;6279939;28;19927;-66
2023/10/10 03:23:56;;;;;;;2.08;1.60;;;;;;;0.77;79.15;95811.44;6263761;28;20538;-67
2023/10/10 03:30:50;;;;;;;1.33;1.08;;;;;;;1.17;77.82;95817.47;6295813;28;20052;-67
2023/10/10 03:34:12;;;;;;;2.67;1.90;;;;;;;1.27;77.51;95813.53;6295040;28;20064;-67
2023/10/10 05:25:13;;;;;;;2.13;1.25;;;;;;;4.83;65.11;95920.09;6293823;28;20044;-66
2023/10/10 05:28:15;;;;;;;2.22;1.27;;;;;;;4.87;65.16;95921.63;6276368;28;20138;-67
2023/10/10 05:31:21;;;;;;;1.38;0.70;;;;;;;4.82;63.71;95891.53;6292961;28;20856;-67
2023/10/10 05:34:23;;;;;;;2.22;1.20;;;;;;;4.99;63.07;95914.84;6293918;28;20036;-66
2023/10/10 05:37:27;;;;;;;0.90;0.90;;;;;;;4.81;63.35;95936.75;6298501;28;20051;-67
2023/10/10 05:40:33;;;;;;;0.90;0.82;;;;;;;4.85;63.50;95927.84;6298136;28;20075;-71
2023/10/10 05:43:35;;;;;;;1.60;1.35;;;;;;;4.91;63.29;95941.34;6298315;28;20045;-67
2023/10/10 05:46:36;;;;;;;0.95;0.90;;;;;;;5.09;62.48;95941.22;6298072;28;20044;-67
2023/10/10 05:49:43;;;;;;;1.15;1.05;;;;;;;4.97;62.08;95918.47;6298807;28;20036;-67
2023/10/10 05:52:46;;;;;;;0.82;0.77;;;;;;;4.97;62.36;95937.56;6298469;28;20056;-67
2023/10/10 05:55:51;;;;;;;1.35;1.00;;;;;;;5.03;62.48;95941.56;6298583;28;20047;-68
2023/10/10 05:58:56;;;;;;;1.75;0.85;;;;;;;5.02;62.73;95935.53;6280803;28;20040;-67
2023/10/10 06:02:01;;;;;;;1.33;0.82;;;;;;;5.20;62.39;95933.59;6298505;28;20500;-67
2023/10/10 06:05:06;;;;;;;2.50;1.08;;;;;;;5.19;62.27;95942.38;6298254;28;20048;-67
2023/10/10 06:08:10;;;;;;;2.90;1.15;;;;;;;5.27;62.08;95944.53;6298243;28;20135;-66
2023/10/10 06:11:16;;;;;;;2.20;1.00;;;;;;;5.32;61.65;95943.34;6297464;28;20048;-67
2023/10/10 06:14:21;;;;;;;1.55;0.80;;;;;;;5.18;61.52;95909.41;6297614;28;20045;-66
2023/10/10 06:17:22;;;;;;;1.23;1.05;;;;;;;5.27;61.92;95944.53;6297379;28;20048;-67
2023/10/10 06:20:24;;;;;;;0.85;0.60;;;;;;;5.48;60.86;95942.41;6297511;28;20052;-67
2023/10/10 06:23:35;;;;;;;1.70;1.05;;;;;;;5.44;61.00;95935.72;6298019;28;20037;-66
2023/10/10 06:26:37;;;;;;;1.90;0.83;;;;;;;5.52;60.77;95938.69;6297128;28;20051;-67
2023/10/10 06:29:40;;;;;;;;;;;;;;;5.70;60.33;95948.03;6298142;28;20044;-67
2023/10/10 06:32:46;;;;;;;1.50;1.20;;;;;;;5.69;60.71;95946.38;6297232;28;20328;-68
2023/10/10 06:35:54;;;;;;;1.42;0.90;;;;;;;5.89;60.15;95953.00;6297879;28;20059;-66
2023/10/10 06:42:10;;;;;;;1.17;0.82;;;;;;;6.04;59.61;95951.25;6297326;28;20079;-67
2023/10/10 06:45:21;;;;;;;1.25;0.60;;;;;;;6.20;58.91;95962.41;6297436;28;20044;-67
2023/10/10 06:48:40;;;;;;;2.22;0.90;;;;;;;6.24;58.53;95943.00;6296259;28;20053;-67
2023/10/10 06:51:45;;;;;;;1.40;0.93;;;;;;;6.45;58.61;95945.19;6296218;28;20431;-67
2023/10/10 06:54:55;;;;;;;1.20;1.10;;;;;;;6.64;58.83;95943.09;6297295;28;20490;-68
2023/10/10 06:57:59;;;;;;;3.70;0.80;;;;;;;6.91;57.43;95953.56;6297234;28;20436;-66
2023/10/10 07:01:04;;;;;;;1.60;0.80;;;;;;;7.12;56.19;95967.00;6296853;28;20075;-66
2023/10/10 07:04:11;;;;;;;2.75;1.00;;;;;;;7.32;55.54;95954.38;6297054;28;20443;-66
2023/10/10 07:07:18;;;;;;;1.13;0.85;;;;;;;7.87;54.66;95964.59;6279634;28;20037;-67
2023/10/10 07:10:35;;;;;;;0.70;0.70;;;;;;;9.48;50.15;95964.50;6296746;28;20048;-67
2023/10/10 07:13:44;;;;;;;2.15;0.85;;;;;;;10.70;46.59;95941.88;6296637;28;20036;-66
2023/10/10 07:16:45;;;;;;;2.20;0.80;;;;;;;10.60;47.06;95964.63;6278035;28;20048;-66
2023/10/10 07:23:09;;;;;;;1.17;0.60;;;;;;;9.44;48.66;95942.88;6295782;28;20092;-68
2023/10/10 07:26:20;;;;;;;1.05;0.98;;;;;;;8.93;49.81;95965.00;6296447;28;20052;-67
2023/10/10 07:29:57;;;;;;;0.60;0.60;;;;;;;8.56;50.26;95971.22;6296350;28;20492;-67
2023/10/10 07:32:54;;;;;;;1.40;1.00;;;;;;;7.70;52.16;95966.66;6294934;28;20459;-66
2023/10/10 07:35:56;;;;;;;0.93;0.80;;;;;;;7.22;53.65;95966.38;6278532;28;20043;-67
2023/10/10 07:42:27;;;;;;;1.23;1.00;;;;;;;6.78;55.16;95973.56;6295846;28;20049;-67
2023/10/10 07:45:43;;;;;;;1.42;0.95;;;;;;;6.86;55.47;95968.69;6277193;28;20435;-68
2023/10/10 07:48:46;;;;;;;1.17;1.02;;;;;;;7.14;55.05;95975.59;6295044;28;20089;-67
2023/10/10 07:51:49;;;;;;;2.63;0.93;;;;;;;7.26;55.05;95973.09;6294809;28;20040;-67
2023/10/10 07:54:53;;;;;;;0.80;0.77;;;;;;;7.82;53.41;95981.56;6295599;28;20462;-67
2023/10/10 07:57:59;;;;;;;;;;;;;;;8.80;51.24;95979.09;6295169;28;20041;-66
2023/10/10 08:01:08;;;;;;;1.50;0.80;;;;;;;8.68;50.54;95967.72;6295010;28;20280;-68
2023/10/10 08:04:12;;;;;;;2.05;0.93;;;;;;;9.42;49.87;95960.53;6295361;28;20044;-67
2023/10/10 08:07:19;;;;;;;2.10;1.00;;;;;;;13.74;41.72;95965.91;6295036;28;20449;-66
2023/10/10 08:10:31;;;;;;;2.15;0.55;;;;;;;14.30;39.16;95962.44;6294433;28;20543;-67
2023/10/10 08:13:37;;;;;;;0.88;0.57;;;;;;;12.93;37.72;95992.53;6294920;28;20045;-66
2023/10/10 08:16:43;;;;;;;0.40;0.40;;;;;;;11.50;39.43;95953.81;6294938;28;20475;-66
2023/10/10 08:19:51;;;;;;;1.00;0.60;;;;;;;11.97;39.69;95967.44;6294791;28;20411;-67
2023/10/10 08:22:59;;;;;;;1.17;0.70;;;;;;;11.49;39.55;95962.66;6294783;28;20036;-66
2023/10/10 08:26:00;;;;;;;1.83;0.65;;;;;;;10.93;41.36;95960.25;6294871;28;20044;-67
2023/10/10 08:29:08;;;;;;;0.50;0.50;;;;;;;12.62;38.15;95972.44;6294815;28;20036;-67
2023/10/10 08:32:12;;;;;;;0.32;0.32;;;;;;;15.31;33.86;95956.34;6294225;28;20048;-67
2023/10/10 08:35:16;;;;;;;1.08;0.40;;;;;;;15.96;32.68;95964.88;6294235;28;20049;-67
2023/10/10 08:38:20;;;;;;;1.90;0.70;;;;;;;14.91;33.63;95944.34;6294334;28;20041;-66
2023/10/10 08:41:29;;;;;;;0.40;0.40;;;;;;;15.54;33.60;95954.06;6294646;28;20055;-67
2023/10/10 08:44:38;;;;;;;0.93;0.55;;;;;;;16.04;32.81;95962.28;6294355;28;20064;-66
2023/10/10 08:47:44;;;;;;;0.80;0.43;;;;;;;14.34;34.44;95941.81;6294920;28;20131;-66
2023/10/10 08:50:50;;;;;;;0.55;0.43;;;;;;;12.90;36.83;95955.84;6294748;28;20033;-67
2023/10/10 08:53:57;;;;;;;0.70;0.70;;;;;;;12.40;38.47;95961.13;6294101;28;20044;-68
2023/10/10 08:57:02;;;;;;;0.68;0.50;;;;;;;15.38;34.18;95957.41;6275645;28;20175;-66
2023/10/10 09:00:17;;;;;;;0.47;0.47;;;;;;;15.93;32.92;95957.22;6294309;28;20051;-67
2023/10/10 09:03:19;;;;;;;1.02;0.50;;;;;;;14.19;34.33;95954.69;6294168;28;20045;-67
2023/10/10 09:06:21;;;;;;;1.77;0.40;;;;;;;12.64;36.92;95954.69;6293623;28;20041;-68
2023/10/10 09:10:04;;;;;;;1.25;0.55;;;;;;;11.80;39.27;95958.28;6294123;28;20044;-66
2023/10/10 09:12:58;;;;;;;0.95;0.70;;;;;;;11.52;39.82;95961.56;6289275;28;20055;-67
2023/10/10 09:16:07;;;;;;;1.48;0.60;;;;;;;10.93;40.59;95965.53;6294115;28;20036;-66
2023/10/10 09:19:10;;;;;;;0.95;0.70;;;;;;;9.95;42.83;95965.31;6294137;28;20044;-67
2023/10/10 09:22:28;;;;;;;0.88;0.80;;;;;;;9.46;44.43;95955.91;6293309;28;20516;-66
2023/10/10 09:25:42;;;;;;;0.60;0.60;;;;;;;9.44;44.69;95962.09;6293843;28;20139;-67
2023/10/10 09:28:55;;;;;;;1.42;0.60;;;;;;;9.76;43.94;95961.44;6292959;28;20056;-67
2023/10/10 09:31:59;;;;;;;0.82;0.50;;;;;;;10.13;42.83;95961.25;6293692;28;20041;-68
2023/10/10 09:35:06;;;;;;;0.68;0.65;;;;;;;9.92;42.96;95962.94;6293996;28;20040;-67
2023/10/10 09:38:14;;;;;;;1.23;1.10;;;;;;;9.40;44.24;95972.97;6275799;28;20072;-68
2023/10/10 09:41:36;;;;;;;0.82;0.60;;;;;;;9.31;44.35;95973.63;6292774;28;20063;-66
2023/10/10 09:48:28;;;;;;;0.60;0.60;;;;;;;8.97;45.24;95982.22;6293009;28;20511;-67
2023/10/10 09:54:55;;;;;;;0.85;0.60;;;;;;;8.80;45.78;95990.44;6292698;28;20049;-67
2023/10/10 10:01:14;;;;;;;0.80;0.60;;;;;;;8.86;46.06;95984.78;6292259;28;20052;-68
2023/10/10 10:04:24;;;;;;;0.60;0.60;;;;;;;8.91;46.19;95993.13;6275148;28;20048;-66
2023/10/10 10:07:53;;;;;;;0.65;0.50;;;;;;;8.90;46.06;96001.94;6275034;28;20055;-67
2023/10/10 10:11:10;;;;;;;0.70;0.70;;;;;;;8.38;47.01;96003.00;6293322;28;20040;-67
2023/10/10 10:14:12;;;;;;;0.68;0.68;;;;;;;8.25;47.29;96007.44;6292334;28;20048;-68
2023/10/10 10:24:17;;;;;;;0.88;0.60;;;;;;;8.00;48.44;96032.69;6297882;28;20049;-67
2023/10/10 10:27:34;;;;;;;0.88;0.88;;;;;;;9.08;47.07;96022.56;6279617;28;20526;-68
2023/10/10 10:31:08;;;;;;;1.00;0.60;;;;;;;9.42;45.52;96037.50;6297594;28;20182;-67
2023/10/10 10:34:23;;;;;;;0.77;0.60;;;;;;;8.80;46.80;96048.16;6262386;28;20048;-68
2023/10/10 10:37:28;;;;;;;0.60;0.60;;;;;;;8.30;48.40;96042.03;6297029;28;20044;-68
2023/10/10 10:43:50;;;;;;;0.65;0.65;;;;;;;7.82;49.99;96049.66;6296415;28;20067;-67
2023/10/10 10:46:57;;;;;;;0.60;0.60;;;;;;;7.88;49.71;96044.00;6296275;28;20507;-67
2023/10/10 10:49:58;;;;;;;0.85;0.70;;;;;;;7.83;49.66;96046.09;6296710;28;20186;-67
2023/10/10 10:53:08;;;;;;;0.65;0.60;;;;;;;7.78;49.70;96048.16;6296289;28;20089;-67
2023/10/10 10:59:21;;;;;;;0.63;0.52;;;;;;;7.69;50.11;96056.66;6297261;28;20040;-66
2023/10/10 11:02:29;;;;;;;0.68;0.68;;;;;;;7.40;51.21;96064.63;6296994;28;20048;-66
2023/10/10 11:05:33;;;;;;;0.85;0.70;;;;;;;7.23;51.62;96068.34;6296102;28;20083;-68
2023/10/10 11:12:05;;;;;;;0.75;0.70;;;;;;;6.87;53.99;96068.91;6296790;28;20427;-67
2023/10/10 11:15:10;;;;;;;0.97;0.90;;;;;;;6.90;54.14;96068.72;6296436;28;20725;-66
2023/10/10 11:18:12;;;;;;;1.50;1.25;;;;;;;6.79;55.07;96076.38;6296646;28;20440;-67
2023/10/10 11:21:27;;;;;;;1.63;1.00;;;;;;;6.98;54.84;96082.13;6296705;28;20067;-67
2023/10/10 11:24:32;;;;;;;1.85;1.02;;;;;;;7.77;53.15;96080.53;6296423;28;20183;-66
2023/10/10 11:27:44;;;;;;;1.67;0.90;;;;;;;9.18;49.61;96068.19;6296558;28;20048;-67
2023/10/10 11:30:53;;;;;;;0.80;0.70;;;;;;;9.65;48.42;96067.34;6296691;28;20415;-68
2023/10/10 11:34:10;;;;;;;0.50;0.50;;;;;;;10.60;45.77;96063.75;6293670;28;20052;-68
2023/10/10 11:37:17;;;;;;;0.60;0.60;;;;;;;9.56;46.32;96062.75;6295566;28;20055;-67
2023/10/10 11:43:32;;;;;;;1.75;1.60;;;;;;;7.88;50.08;96064.94;6295705;28;20048;-67
2023/10/10 11:46:33;;;;;;;1.92;1.42;;;;;;;7.65;50.98;96069.09;6295737;28;20036;-67
2023/10/10 11:49:41;;;;;;;4.40;1.70;;;;;;;7.47;51.05;96084.22;6295866;28;20040;-67
2023/10/10 11:52:53;;;;;;;1.75;1.38;;;;;;;7.20;52.01;96079.84;6295764;28;20049;-66
2023/10/10 11:56:07;;;;;;;3.67;1.70;;;;;;;7.02;52.75;96078.41;6295556;28;20040;-68
2023/10/10 11:59:14;;;;;;;3.55;1.30;;;;;;;6.94;52.89;96088.50;6295509;28;20044;-67
2023/10/10 12:02:18;;;;;;;1.42;1.20;;;;;;;6.93;53.12;96097.28;6294690;28;20075;-67
2023/10/10 12:08:36;;;;;;;2.55;2.00;;;;;;;7.34;52.44;96080.75;6277210;28;20435;-67
2023/10/10 12:11:38;;;;;;;0.63;0.60;;;;;;;8.37;49.77;96097.47;6294796;28;20048;-67
2023/10/10 12:14:42;;;;;;;0.85;0.85;;;;;;;8.42;49.55;96095.41;6295107;28;20043;-67
2023/10/10 12:17:47;;;;;;;1.00;0.80;;;;;;;7.92;50.45;96097.84;6295315;28;20048;-66
2023/10/10 12:20:49;;;;;;;0.90;0.73;;;;;;;7.47;51.90;96097.31;6294495;28;20056;-67
2023/10/10 12:23:57;;;;;;;1.75;0.90;;;;;;;7.70;51.55;96087.09;6294917;28;20458;-67
2023/10/10 12:27:01;;;;;;;0.73;0.57;;;;;;;7.18;52.75;96089.56;6294408;28;20151;-68
2023/10/10 12:30:07;;;;;;;1.58;1.00;;;;;;;6.95;53.73;96093.63;6294334;28;20435;-67
2023/10/10 12:33:12;;;;;;;1.85;1.00;;;;;;;6.35;55.59;96101.72;6277164;28;20044;-68
2023/10/10 12:36:16;;;;;;;0.98;0.98;;;;;;;6.19;56.28;96104.41;6294725;28;20044;-67
2023/10/10 12:39:21;;;;;;;1.02;0.80;;;;;;;6.03;56.98;96116.72;6293876;28;20049;-67
2023/10/10 12:42:24;;;;;;;1.85;1.10;;;;;;;5.83;57.37;96110.84;6294351;28;20075;-67
2023/10/10 12:45:29;;;;;;;1.65;1.55;;;;;;;5.90;57.90;96105.25;6294229;28;20041;-67
2023/10/10 12:48:31;;;;;;;1.30;1.20;;;;;;;5.92;57.77;96114.69;6294306;28;20406;-67
2023/10/10 12:51:32;;;;;;;1.38;1.20;;;;;;;5.95;57.93;96111.94;6293793;28;20049;-68
2023/10/10 12:54:36;;;;;;;3.67;1.60;;;;;;;5.93;58.14;96115.53;6293320;28;20055;-68
2023/10/10 12:57:39;;;;;;;4.32;2.35;;;;;;;5.94;58.26;96112.00;6293759;28;20052;-68
2023/10/10 13:00:52;;;;;;;3.30;2.60;;;;;;;5.89;58.59;96124.44;6292437;28;20055;-67
2023/10/10 13:03:54;;;;;;;5.10;3.22;;;;;;;5.70;58.76;96115.09;6293432;28;20052;-69
2023/10/10 13:07:03;;;;;;;2.40;1.75;;;;;;;5.73;59.10;96124.50;6294500;28;20174;-67
2023/10/10 13:10:10;;;;;;;1.10;1.00;;;;;;;5.53;59.41;96123.03;6294116;28;20056;-66
2023/10/10 13:13:26;;;;;;;2.28;1.27;;;;;;;5.55;59.42;96126.41;6276723;28;20044;-68
2023/10/10 13:19:52;;;;;;;1.25;1.15;;;;;;;5.53;59.61;96130.88;6276037;28;20052;-67
2023/10/10 13:22:59;;;;;;;2.30;1.30;;;;;;;5.33;60.13;96127.59;6294007;28;20044;-68
2023/10/10 13:26:06;;;;;;;2.80;1.00;;;;;;;5.26;60.49;96131.47;6293582;28;20139;-69
2023/10/10 13:29:08;;;;;;;1.63;1.10;;;;;;;5.08;61.22;96140.31;6293556;28;20127;-68
2023/10/10 13:32:13;;;;;;;1.42;1.20;;;;;;;5.11;61.16;96143.59;6292886;28;20044;-67
2023/10/10 13:35:15;;;;;;;1.85;1.20;;;;;;;4.92;61.75;96148.97;6292881;28;20053;-67
2023/10/10 13:38:18;;;;;;;2.35;1.52;;;;;;;4.92;62.21;96143.75;6275998;28;20119;-68
2023/10/10 13:41:27;;;;;;;1.90;1.40;;;;;;;4.97;62.43;96142.69;6292758;28;20052;-67
2023/10/10 13:44:33;;;;;;;4.85;2.00;;;;;;;5.01;62.12;96150.25;6294022;28;20500;-67
2023/10/10 13:47:39;;;;;;;1.80;1.42;;;;;;;4.91;62.76;96147.28;6292585;28;20101;-67
2023/10/10 13:50:46;;;;;;;2.55;1.50;;;;;;;4.91;62.81;96152.50;6294319;28;20126;-67
2023/10/10 13:53:55;;;;;;;4.97;2.30;;;;;;;5.03;62.69;96144.94;6293630;28;20514;-67
2023/10/10 13:57:00;;;;;;;11.00;4.15;;;;;;;5.05;62.31;96148.31;6295467;28;20049;-67
2023/10/10 14:00:19;;;;;;;9.27;4.55;;;;;;;5.04;62.86;96146.63;6298367;28;20059;-66
2023/10/10 14:03:29;;;;;;;5.45;3.17;;;;;;;5.08;62.24;96151.59;6283410;28;20452;-67
2023/10/10 14:06:45;;;;;;;4.05;2.38;;;;;;;4.98;62.86;96166.03;6279969;28;20076;-67
2023/10/10 14:09:52;;;;;;;5.78;3.10;;;;;;;5.06;62.64;96160.41;6298184;28;20041;-67
2023/10/10 14:13:11;;;;;;;7.18;3.05;;;;;;;5.06;62.82;96160.41;6280062;28;20055;-67
2023/10/10 14:16:18;;;;;;;9.50;3.53;;;;;;;5.06;62.50;96165.63;6297983;28;20048;-67
2023/10/10 14:19:23;;;;;;;2.88;2.25;;;;;;;5.17;62.85;96171.09;6298000;28;20044;-67
2023/10/10 14:22:29;;;;;;;4.20;2.55;;;;;;;5.22;62.61;96178.69;6297606;28;20063;-66
2023/10/10 14:25:37;;;;;;;2.83;2.03;;;;;;;5.10;63.10;96182.81;6296798;28;20048;-67
2023/10/10 14:28:51;;;;;;;2.92;1.50;;;;;;;5.11;63.03;96181.88;6298029;28;20040;-66
2023/10/10 14:31:58;;;;;;;2.28;1.20;;;;;;;5.26;62.72;96183.63;6297816;28;20123;-67
2023/10/10 14:35:03;;;;;;;1.85;0.82;;;;;;;5.24;62.86;96180.28;6297691;28;20036;-68
2023/10/10 14:38:05;;;;;;;1.85;0.95;;;;;;;5.26;62.52;96188.84;6296935;28;20067;-67
2023/10/10 14:41:11;;;;;;;1.63;1.13;;;;;;;5.29;62.54;96175.63;6297530;28;20044;-67
2023/10/10 14:44:13;;;;;;;1.17;0.98;;;;;;;5.15;62.64;96180.78;6296621;28;20141;-67
2023/10/10 14:47:20;;;;;;;1.88;1.10;;;;;;;5.29;62.19;96183.47;6297278;28;20098;-67
2023/10/10 14:50:25;;;;;;;1.48;1.25;;;;;;;5.12;62.96;96189.63;6296759;28;20446;-67
2023/10/10 14:53:27;;;;;;;0.93;0.82;;;;;;;5.26;62.72;96186.25;6296290;28;20139;-67
2023/10/10 14:56:35;;;;;;;1.75;1.13;;;;;;;5.13;62.84;96187.84;6296280;28;20064;-68
2023/10/10 14:59:42;;;;;;;1.30;1.20;;;;;;;5.06;63.56;96196.91;6297252;28;20048;-67
2023/10/10 15:02:44;;;;;;;1.50;1.40;;;;;;;5.20;63.13;96204.00;6295987;28;20056;-67
2023/10/10 15:05:53;;;;;;;1.00;0.90;;;;;;;5.23;63.09;96198.63;6297022;28;20041;-68
2023/10/10 15:08:55;;;;;;;1.48;1.30;;;;;;;5.15;63.28;96207.72;6295350;28;20044;-67
2023/10/10 15:11:59;;;;;;;1.45;1.23;;;;;;;5.15;63.29;96204.25;6296283;28;20064;-67
2023/10/10 15:15:04;;;;;;;1.75;1.20;;;;;;;5.14;63.14;96205.19;6296704;28;20407;-67
2023/10/10 15:18:07;;;;;;;1.65;1.10;;;;;;;5.07;63.48;96209.88;6295997;28;20059;-68
2023/10/10 15:21:08;;;;;;;1.50;1.40;;;;;;;5.00;63.42;96205.06;6296409;28;20036;-66
2023/10/10 15:24:12;;;;;;;1.30;1.20;;;;;;;5.04;63.50;96214.41;6296123;28;20049;-67
2023/10/10 15:27:20;;;;;;;2.67;1.15;;;;;;;5.05;62.97;96216.13;6296692;28;20059;-68
2023/10/10 15:30:21;;;;;;;1.30;0.93;;;;;;;5.02;63.22;96221.50;6295970;28;20051;-66
2023/10/10 15:33:25;;;;;;;1.35;1.25;;;;;;;4.94;63.59;96212.28;6296371;28;20036;-68
2023/10/10 15:36:32;;;;;;;1.33;1.23;;;;;;;4.87;64.10;96228.34;6294933;28;20419;-67
2023/10/10 15:39:38;;;;;;;1.33;1.23;;;;;;;4.92;63.97;96221.94;6296122;28;20044;-66
2023/10/10 15:42:48;;;;;;;1.30;1.20;;;;;;;4.88;64.14;96227.44;6295043;28;20053;-68
2023/10/10 15:45:49;;;;;;;1.08;0.95;;;;;;;4.95;63.68;96226.16;6295179;28;20056;-68
2023/10/10 15:48:50;;;;;;;2.50;1.30;;;;;;;4.92;64.04;96231.53;6295459;28;20618;-68
2023/10/10 15:51:59;;;;;;;1.10;1.00;;;;;;;4.84;64.21;96229.38;6294785;28;20047;-67
2023/10/10 15:55:05;;;;;;;1.38;1.13;;;;;;;4.87;64.05;96231.81;6295128;28;20147;-68
2023/10/10 15:58:10;;;;;;;2.35;1.15;;;;;;;4.86;64.27;96224.88;6295594;28;20036;-67
2023/10/10 16:01:15;;;;;;;2.28;1.40;;;;;;;4.90;64.18;96229.03;6295050;28;20430;-67
2023/10/10 16:04:27;;;;;;;1.95;1.60;;;;;;;4.70;64.17;96205.78;6295400;28;20044;-68
2023/10/10 16:07:34;;;;;;;1.45;1.30;;;;;;;4.80;64.37;96233.03;6295504;28;20045;-68
2023/10/10 16:10:41;;;;;;;1.08;1.05;;;;;;;4.94;64.33;96238.38;6295402;28;20044;-67
2023/10/10 16:13:46;;;;;;;1.13;0.98;;;;;;;4.80;64.36;96227.81;6294930;28;20052;-68
2023/10/10 16:16:52;;;;;;;1.23;1.13;;;;;;;4.67;65.13;96226.78;6295098;28;20055;-67
2023/10/10 16:19:53;;;;;;;2.35;1.90;;;;;;;4.71;64.97;96228.31;6293268;28;20391;-68
2023/10/10 16:23:01;;;;;;;1.38;1.27;;;;;;;4.63;65.07;96233.06;6295153;28;20044;-68
2023/10/10 16:26:10;;;;;;;1.60;1.50;;;;;;;4.62;65.12;96244.44;6294578;28;20064;-67
2023/10/10 16:29:19;;;;;;;1.13;1.02;;;;;;;4.66;65.37;96245.94;6295363;28;20071;-67
2023/10/10 16:32:22;;;;;;;1.63;1.52;;;;;;;4.46;65.74;96237.38;6294897;28;20419;-67
2023/10/10 16:35:32;;;;;;;2.28;1.52;;;;;;;4.54;65.85;96241.38;6293812;28;20129;-67
2023/10/10 16:38:38;;;;;;;1.10;1.00;;;;;;;4.46;65.90;96245.19;6293605;28;20130;-67
2023/10/10 16:41:43;;;;;;;2.25;1.10;;;;;;;4.42;66.21;96246.28;6294043;28;20047;-67
2023/10/10 16:44:47;;;;;;;1.50;1.35;;;;;;;4.34;66.40;96248.41;6294073;28;20506;-67
2023/10/10 16:47:49;;;;;;;1.45;1.35;;;;;;;4.34;66.87;96240.59;6293900;28;20060;-66
2023/10/10 16:50:50;;;;;;;1.63;1.52;;;;;;;4.42;66.74;96240.22;6293632;28;20056;-67
2023/10/10 16:53:53;;;;;;;2.63;1.80;;;;;;;4.44;66.86;96254.84;6293688;28;20051;-68
2023/10/10 16:56:57;;;;;;;4.00;3.40;;;;;;;4.43;66.97;96258.38;6294786;28;20048;-67
2023/10/10 16:59:59;;;;;;;4.38;3.50;;;;;;;4.37;66.86;96253.47;6293914;28;20167;-67
2023/10/10 17:03:01;;;;;;;3.10;1.92;;;;;;;4.40;67.18;96261.13;6293480;28;20048;-66
2023/10/10 17:06:05;;;;;;;2.20;2.00;;;;;;;4.34;67.45;96258.84;6293368;28;20128;-67
2023/10/10 17:09:13;;;;;;;2.38;1.85;;;;;;;4.40;67.30;96257.69;6294260;28;20048;-67
2023/10/10 17:12:19;;;;;;;2.50;2.30;;;;;;;4.20;67.69;96250.88;6294325;28;20044;-67
2023/10/10 17:15:21;;;;;;;1.73;1.63;;;;;;;4.40;67.32;96258.53;6293541;28;20492;-68
2023/10/10 17:18:28;;;;;;;2.35;1.80;;;;;;;4.33;67.50;96264.97;6294115;28;20040;-67
2023/10/10 17:21:34;;;;;;;2.72;2.40;;;;;;;4.28;67.52;96256.53;6293817;28;20049;-67
2023/10/10 17:24:38;;;;;;;2.92;2.33;;;;;;;4.21;68.09;96260.34;6294548;28;20041;-68
2023/10/10 17:27:51;;;;;;;3.05;2.75;;;;;;;4.17;68.49;96271.84;6294066;28;20060;-68
2023/10/10 17:30:58;;;;;;;2.20;1.92;;;;;;;4.07;68.86;96268.00;6294141;28;20040;-67
2023/10/10 17:34:01;;;;;;;2.60;2.38;;;;;;;4.05;68.95;96271.53;6293364;28;20133;-68
2023/10/10 17:37:08;;;;;;;2.55;2.35;;;;;;;4.19;68.71;96262.19;6293924;28;20495;-67
2023/10/10 17:40:16;;;;;;;2.38;2.17;;;;;;;4.05;68.91;96263.72;6293941;28;20043;-67